Terminal Aerodrome Forecast
Issued by NWS Cleveland, OH

Home | Current Version | Previous Version | Graphics & Text | Print | Product List | Glossary On
Versions: 1 2 3 4 5 6 7 8 9 10 11 12 13 14 15 16 17
289
FTUS41 KCLE 181029 AAB
TAFTOL
TAF AMD
KTOL 181029Z 1810/1906 26005KT P6SM OVC028
     FM181300 VRB05KT P6SM SCT030
     FM181400 10006KT P6SM BKN030
     FM182200 07009KT P6SM -RA OVC028
     FM190000 06009KT 5SM -RA OVC008
     FM190400 35012G20KT 4SM -RASN OVC007=

USA.gov is the U.S. government's official web portal to all federal, state and local government web resources and services.